This is the latest recevied weather packets stored in our database for station/object WX4HP-13. If no packets are shown the sender has not sent any weather packets the latest 10 day(s).
| Time | Temp. | Humidity | Pressure | Rain* | Wind** | Luminosity | Snow |
|---|---|---|---|---|---|---|---|
| 1777320899 | 25.56° C | 61% | 1015.6 hPa | 0 mm | - | - | - |
| 1777320596 | 26.11° C | 59% | 1015.5 hPa | 0 mm | - | - | - |
| 1777320299 | 26.67° C | 58% | 1015.5 hPa | 0 mm | - | - | - |
| 1777319998 | 26.67° C | 57% | 1015.5 hPa | 0 mm | - | - | - |
| 1777319697 | 26.11° C | 59% | 1015.5 hPa | 0 mm | - | - | - |
| 1777319397 | 26.11° C | 58% | 1015.5 hPa | 0 mm | - | - | - |
| 1777319098 | 26.67° C | 57% | 1015.5 hPa | 0 mm | - | - | - |
| 1777318797 | 26.67° C | 57% | 1015.4 hPa | 0 mm | - | - | - |
| 1777318497 | 26.11° C | 59% | 1015.4 hPa | 0 mm | - | - | - |
| 1777318197 | 25.56° C | 61% | 1015.5 hPa | 0 mm | - | - | - |
| 1777317897 | 25° C | 61% | 1015.6 hPa | 0 mm | - | - | - |
| 1777317597 | 25° C | 62% | 1015.7 hPa | 0 mm | - | - | - |
| 1777317297 | 25° C | 63% | 1015.7 hPa | 0 mm | - | - | - |
| 1777316996 | 25° C | 62% | 1015.7 hPa | 0 mm | - | - | - |
| 1777316699 | 25° C | 61% | 1015.6 hPa | 0 mm | - | - | - |
| 1777316397 | 25° C | 62% | 1015.7 hPa | 0 mm | - | - | - |
| 1777316097 | 25.56° C | 62% | 1015.8 hPa | 0 mm | - | - | - |
| 1777315796 | 25.56° C | 59% | 1015.6 hPa | 0 mm | - | - | - |
| 1777315499 | 26.11° C | 61% | 1015.6 hPa | 0 mm | - | - | - |
| 1777315196 | 25.56° C | 62% | 1015.7 hPa | 0 mm | - | - | - |
| 1777314897 | 25.56° C | 63% | 1015.9 hPa | 0 mm | - | - | - |
| 1777313997 | 25.56° C | 61% | 1015.9 hPa | 0 mm | - | - | - |
| 1777313697 | 25° C | 62% | 1015.9 hPa | 0 mm | - | - | - |
| 1777313397 | 24.44° C | 64% | 1016.1 hPa | 0 mm | - | - | - |
| 1777312795 | 24.44° C | 65% | 1016.3 hPa | 0 mm | - | - | - |
* Rain latest hour (hover to see other rain measurements)
** Current wind speed in m/s (hover to see current wind gust speed)